sensor_id;sensor_type;location;lat;lon;timestamp;P1;durP1;ratioP1;P2;durP2;ratioP2
25567;SDS011;13455;51.480;7.594;2023-06-04T00:01:41;2.33;;;1.10;;
25567;SDS011;13455;51.480;7.594;2023-06-04T00:04:09;3.43;;;1.10;;
25567;SDS011;13455;51.480;7.594;2023-06-04T00:06:35;2.60;;;1.30;;
25567;SDS011;13455;51.480;7.594;2023-06-04T00:09:01;3.78;;;1.40;;
25567;SDS011;13455;51.480;7.594;2023-06-04T00:11:27;3.53;;;1.50;;
25567;SDS011;13455;51.480;7.594;2023-06-04T00:13:53;4.40;;;1.50;;
25567;SDS011;13455;51.480;7.594;2023-06-04T00:16:19;2.30;;;1.20;;
25567;SDS011;13455;51.480;7.594;2023-06-04T00:18:45;5.13;;;1.50;;
25567;SDS011;13455;51.480;7.594;2023-06-04T00:21:10;3.70;;;1.60;;
25567;SDS011;13455;51.480;7.594;2023-06-04T00:23:36;3.40;;;1.73;;
25567;SDS011;13455;51.480;7.594;2023-06-04T00:26:03;3.50;;;1.70;;
25567;SDS011;13455;51.480;7.594;2023-06-04T00:28:29;5.75;;;2.15;;
25567;SDS011;13455;51.480;7.594;2023-06-04T00:30:55;3.50;;;1.90;;
25567;SDS011;13455;51.480;7.594;2023-06-04T00:33:21;4.20;;;2.10;;
25567;SDS011;13455;51.480;7.594;2023-06-04T00:35:46;3.77;;;1.90;;
25567;SDS011;13455;51.480;7.594;2023-06-04T00:38:12;3.27;;;1.90;;
25567;SDS011;13455;51.480;7.594;2023-06-04T00:40:38;3.85;;;2.08;;
25567;SDS011;13455;51.480;7.594;2023-06-04T00:43:04;4.60;;;2.10;;
25567;SDS011;13455;51.480;7.594;2023-06-04T00:45:30;3.72;;;2.10;;
25567;SDS011;13455;51.480;7.594;2023-06-04T00:47:56;4.22;;;2.00;;
25567;SDS011;13455;51.480;7.594;2023-06-04T00:50:22;4.57;;;2.10;;
25567;SDS011;13455;51.480;7.594;2023-06-04T00:52:49;3.95;;;2.38;;
25567;SDS011;13455;51.480;7.594;2023-06-04T00:55:15;4.00;;;2.40;;
25567;SDS011;13455;51.480;7.594;2023-06-04T00:57:44;5.38;;;2.28;;
25567;SDS011;13455;51.480;7.594;2023-06-04T01:00:10;5.30;;;2.50;;
25567;SDS011;13455;51.480;7.594;2023-06-04T01:02:38;4.75;;;2.17;;
25567;SDS011;13455;51.480;7.594;2023-06-04T01:07:39;4.15;;;2.25;;
25567;SDS011;13455;51.480;7.594;2023-06-04T01:10:06;3.70;;;2.10;;
25567;SDS011;13455;51.480;7.594;2023-06-04T01:12:32;4.80;;;2.47;;
25567;SDS011;13455;51.480;7.594;2023-06-04T01:14:58;5.00;;;2.30;;
25567;SDS011;13455;51.480;7.594;2023-06-04T01:17:40;5.00;;;2.53;;
25567;SDS011;13455;51.480;7.594;2023-06-04T01:25:24;5.40;;;2.77;;
25567;SDS011;13455;51.480;7.594;2023-06-04T01:27:51;4.20;;;2.60;;
25567;SDS011;13455;51.480;7.594;2023-06-04T01:30:27;5.43;;;2.80;;
25567;SDS011;13455;51.480;7.594;2023-06-04T01:32:58;7.78;;;3.08;;
25567;SDS011;13455;51.480;7.594;2023-06-04T01:35:25;6.30;;;2.80;;
25567;SDS011;13455;51.480;7.594;2023-06-04T01:37:51;5.53;;;2.80;;
25567;SDS011;13455;51.480;7.594;2023-06-04T01:40:17;4.78;;;2.70;;
25567;SDS011;13455;51.480;7.594;2023-06-04T01:42:44;4.97;;;2.70;;
25567;SDS011;13455;51.480;7.594;2023-06-04T01:45:10;5.10;;;2.83;;
25567;SDS011;13455;51.480;7.594;2023-06-04T01:47:36;4.97;;;2.83;;
25567;SDS011;13455;51.480;7.594;2023-06-04T01:50:02;4.33;;;2.70;;
25567;SDS011;13455;51.480;7.594;2023-06-04T01:52:28;5.45;;;2.88;;
25567;SDS011;13455;51.480;7.594;2023-06-04T01:54:54;4.73;;;2.50;;
25567;SDS011;13455;51.480;7.594;2023-06-04T01:57:21;5.00;;;2.72;;
25567;SDS011;13455;51.480;7.594;2023-06-04T01:59:47;5.35;;;2.67;;
25567;SDS011;13455;51.480;7.594;2023-06-04T02:02:14;5.20;;;2.60;;
25567;SDS011;13455;51.480;7.594;2023-06-04T02:04:40;6.90;;;2.58;;
25567;SDS011;13455;51.480;7.594;2023-06-04T02:07:10;6.53;;;2.40;;
25567;SDS011;13455;51.480;7.594;2023-06-04T02:09:36;4.35;;;2.20;;
25567;SDS011;13455;51.480;7.594;2023-06-04T02:12:03;4.80;;;2.22;;
25567;SDS011;13455;51.480;7.594;2023-06-04T02:14:29;4.20;;;2.00;;
25567;SDS011;13455;51.480;7.594;2023-06-04T02:16:55;5.10;;;2.10;;
25567;SDS011;13455;51.480;7.594;2023-06-04T02:19:25;4.40;;;1.90;;
25567;SDS011;13455;51.480;7.594;2023-06-04T02:21:55;4.07;;;2.00;;
25567;SDS011;13455;51.480;7.594;2023-06-04T02:24:21;3.45;;;1.90;;
25567;SDS011;13455;51.480;7.594;2023-06-04T02:26:47;4.03;;;2.08;;
25567;SDS011;13455;51.480;7.594;2023-06-04T02:29:13;4.85;;;2.20;;
25567;SDS011;13455;51.480;7.594;2023-06-04T02:31:39;4.13;;;2.00;;
25567;SDS011;13455;51.480;7.594;2023-06-04T02:34:05;4.80;;;2.22;;
25567;SDS011;13455;51.480;7.594;2023-06-04T02:36:31;3.50;;;2.10;;
25567;SDS011;13455;51.480;7.594;2023-06-04T02:38:57;5.13;;;2.35;;
25567;SDS011;13455;51.480;7.594;2023-06-04T02:41:23;3.97;;;2.38;;
25567;SDS011;13455;51.480;7.594;2023-06-04T02:43:50;3.22;;;2.15;;
25567;SDS011;13455;51.480;7.594;2023-06-04T02:46:16;3.38;;;2.08;;
25567;SDS011;13455;51.480;7.594;2023-06-04T02:48:42;4.40;;;2.30;;
25567;SDS011;13455;51.480;7.594;2023-06-04T02:51:10;3.75;;;2.22;;
25567;SDS011;13455;51.480;7.594;2023-06-04T02:53:36;3.80;;;1.98;;
25567;SDS011;13455;51.480;7.594;2023-06-04T02:56:02;4.30;;;2.40;;
25567;SDS011;13455;51.480;7.594;2023-06-04T02:58:28;4.10;;;2.30;;
25567;SDS011;13455;51.480;7.594;2023-06-04T03:00:56;4.20;;;2.03;;
25567;SDS011;13455;51.480;7.594;2023-06-04T03:03:22;4.77;;;2.30;;
25567;SDS011;13455;51.480;7.594;2023-06-04T03:05:48;3.50;;;2.15;;
25567;SDS011;13455;51.480;7.594;2023-06-04T03:08:14;3.65;;;2.17;;
25567;SDS011;13455;51.480;7.594;2023-06-04T03:10:42;3.38;;;2.20;;
25567;SDS011;13455;51.480;7.594;2023-06-04T03:13:08;4.55;;;2.20;;
25567;SDS011;13455;51.480;7.594;2023-06-04T03:15:34;4.10;;;2.20;;
25567;SDS011;13455;51.480;7.594;2023-06-04T03:18:03;4.20;;;2.00;;
25567;SDS011;13455;51.480;7.594;2023-06-04T03:20:30;3.60;;;2.03;;
25567;SDS011;13455;51.480;7.594;2023-06-04T03:23:01;4.55;;;2.10;;
25567;SDS011;13455;51.480;7.594;2023-06-04T03:25:27;4.20;;;2.00;;
25567;SDS011;13455;51.480;7.594;2023-06-04T03:27:53;3.47;;;2.00;;
25567;SDS011;13455;51.480;7.594;2023-06-04T03:30:18;4.37;;;1.90;;
25567;SDS011;13455;51.480;7.594;2023-06-04T03:32:44;5.18;;;2.15;;
25567;SDS011;13455;51.480;7.594;2023-06-04T03:35:10;3.80;;;2.03;;
25567;SDS011;13455;51.480;7.594;2023-06-04T03:37:36;3.57;;;2.00;;
25567;SDS011;13455;51.480;7.594;2023-06-04T03:40:01;4.63;;;2.13;;
25567;SDS011;13455;51.480;7.594;2023-06-04T03:42:27;4.20;;;2.28;;
25567;SDS011;13455;51.480;7.594;2023-06-04T03:44:53;5.87;;;2.00;;
25567;SDS011;13455;51.480;7.594;2023-06-04T03:47:19;4.10;;;2.10;;
25567;SDS011;13455;51.480;7.594;2023-06-04T03:49:45;5.25;;;2.20;;
25567;SDS011;13455;51.480;7.594;2023-06-04T03:52:11;5.07;;;2.13;;
25567;SDS011;13455;51.480;7.594;2023-06-04T03:54:37;5.22;;;2.17;;
25567;SDS011;13455;51.480;7.594;2023-06-04T03:57:03;5.50;;;2.37;;
25567;SDS011;13455;51.480;7.594;2023-06-04T03:59:28;3.93;;;2.30;;
25567;SDS011;13455;51.480;7.594;2023-06-04T04:01:54;4.30;;;2.10;;
25567;SDS011;13455;51.480;7.594;2023-06-04T04:04:20;4.37;;;2.20;;
25567;SDS011;13455;51.480;7.594;2023-06-04T04:06:45;3.15;;;2.00;;
25567;SDS011;13455;51.480;7.594;2023-06-04T04:09:11;5.20;;;2.10;;
25567;SDS011;13455;51.480;7.594;2023-06-04T04:11:37;3.90;;;2.10;;
25567;SDS011;13455;51.480;7.594;2023-06-04T04:14:02;4.50;;;2.25;;
25567;SDS011;13455;51.480;7.594;2023-06-04T04:16:28;3.57;;;2.17;;
25567;SDS011;13455;51.480;7.594;2023-06-04T04:18:53;3.60;;;2.30;;
25567;SDS011;13455;51.480;7.594;2023-06-04T04:21:20;3.90;;;2.10;;
25567;SDS011;13455;51.480;7.594;2023-06-04T04:23:46;4.65;;;2.38;;
25567;SDS011;13455;51.480;7.594;2023-06-04T04:26:11;5.47;;;2.40;;
25567;SDS011;13455;51.480;7.594;2023-06-04T04:28:41;4.85;;;2.30;;
25567;SDS011;13455;51.480;7.594;2023-06-04T04:31:07;3.92;;;2.30;;
25567;SDS011;13455;51.480;7.594;2023-06-04T04:33:33;4.23;;;2.30;;
25567;SDS011;13455;51.480;7.594;2023-06-04T04:36:04;6.80;;;2.42;;
25567;SDS011;13455;51.480;7.594;2023-06-04T04:38:33;5.43;;;2.50;;
25567;SDS011;13455;51.480;7.594;2023-06-04T04:41:00;4.47;;;2.45;;
25567;SDS011;13455;51.480;7.594;2023-06-04T04:43:29;7.32;;;2.55;;
25567;SDS011;13455;51.480;7.594;2023-06-04T04:45:59;4.07;;;2.42;;
25567;SDS011;13455;51.480;7.594;2023-06-04T04:48:24;5.47;;;2.55;;
25567;SDS011;13455;51.480;7.594;2023-06-04T04:50:51;5.13;;;2.80;;
25567;SDS011;13455;51.480;7.594;2023-06-04T04:53:17;5.90;;;2.53;;
25567;SDS011;13455;51.480;7.594;2023-06-04T04:55:43;4.70;;;2.60;;
25567;SDS011;13455;51.480;7.594;2023-06-04T04:58:08;6.32;;;2.60;;
25567;SDS011;13455;51.480;7.594;2023-06-04T05:00:34;5.25;;;2.50;;
25567;SDS011;13455;51.480;7.594;2023-06-04T05:02:59;4.60;;;2.40;;
25567;SDS011;13455;51.480;7.594;2023-06-04T05:05:25;4.37;;;2.40;;
25567;SDS011;13455;51.480;7.594;2023-06-04T05:07:51;4.83;;;2.50;;
25567;SDS011;13455;51.480;7.594;2023-06-04T05:10:16;5.28;;;2.63;;
25567;SDS011;13455;51.480;7.594;2023-06-04T05:12:52;4.63;;;2.58;;
25567;SDS011;13455;51.480;7.594;2023-06-04T05:15:17;5.47;;;2.50;;
25567;SDS011;13455;51.480;7.594;2023-06-04T05:17:44;5.43;;;2.40;;
25567;SDS011;13455;51.480;7.594;2023-06-04T05:20:11;5.28;;;2.60;;
25567;SDS011;13455;51.480;7.594;2023-06-04T05:22:38;4.38;;;2.40;;
25567;SDS011;13455;51.480;7.594;2023-06-04T05:25:04;4.47;;;2.70;;
25567;SDS011;13455;51.480;7.594;2023-06-04T05:27:33;4.97;;;2.35;;
25567;SDS011;13455;51.480;7.594;2023-06-04T05:30:00;4.60;;;2.42;;
25567;SDS011;13455;51.480;7.594;2023-06-04T05:32:27;5.68;;;2.60;;
25567;SDS011;13455;51.480;7.594;2023-06-04T05:34:53;4.25;;;2.53;;
25567;SDS011;13455;51.480;7.594;2023-06-04T05:37:22;4.33;;;2.60;;
25567;SDS011;13455;51.480;7.594;2023-06-04T05:39:49;4.77;;;2.60;;
25567;SDS011;13455;51.480;7.594;2023-06-04T05:42:15;5.22;;;2.80;;
25567;SDS011;13455;51.480;7.594;2023-06-04T05:44:41;3.97;;;2.67;;
25567;SDS011;13455;51.480;7.594;2023-06-04T05:47:06;5.63;;;2.67;;
25567;SDS011;13455;51.480;7.594;2023-06-04T05:49:33;6.15;;;2.50;;
25567;SDS011;13455;51.480;7.594;2023-06-04T05:51:59;4.82;;;2.60;;
25567;SDS011;13455;51.480;7.594;2023-06-04T05:54:26;5.93;;;2.47;;
25567;SDS011;13455;51.480;7.594;2023-06-04T05:56:55;5.60;;;2.42;;
25567;SDS011;13455;51.480;7.594;2023-06-04T05:59:20;3.47;;;2.40;;
25567;SDS011;13455;51.480;7.594;2023-06-04T06:01:46;4.40;;;2.70;;
25567;SDS011;13455;51.480;7.594;2023-06-04T06:04:13;5.13;;;2.63;;
25567;SDS011;13455;51.480;7.594;2023-06-04T06:06:39;4.25;;;2.63;;
25567;SDS011;13455;51.480;7.594;2023-06-04T06:09:04;7.50;;;2.60;;
25567;SDS011;13455;51.480;7.594;2023-06-04T06:11:30;4.57;;;2.67;;
25567;SDS011;13455;51.480;7.594;2023-06-04T06:13:56;4.87;;;2.47;;
25567;SDS011;13455;51.480;7.594;2023-06-04T06:16:21;4.80;;;2.50;;
25567;SDS011;13455;51.480;7.594;2023-06-04T06:18:47;4.75;;;2.40;;
25567;SDS011;13455;51.480;7.594;2023-06-04T06:21:13;3.85;;;2.45;;
25567;SDS011;13455;51.480;7.594;2023-06-04T06:23:39;5.20;;;2.60;;
25567;SDS011;13455;51.480;7.594;2023-06-04T06:26:05;5.20;;;2.43;;
25567;SDS011;13455;51.480;7.594;2023-06-04T06:28:33;4.70;;;2.38;;
25567;SDS011;13455;51.480;7.594;2023-06-04T06:31:00;4.60;;;2.50;;
25567;SDS011;13455;51.480;7.594;2023-06-04T06:33:27;3.28;;;2.40;;
25567;SDS011;13455;51.480;7.594;2023-06-04T06:35:52;4.28;;;2.58;;
25567;SDS011;13455;51.480;7.594;2023-06-04T06:38:18;6.20;;;2.58;;
25567;SDS011;13455;51.480;7.594;2023-06-04T06:40:44;3.72;;;2.35;;
25567;SDS011;13455;51.480;7.594;2023-06-04T06:43:10;4.05;;;2.15;;
25567;SDS011;13455;51.480;7.594;2023-06-04T06:45:36;3.77;;;2.07;;
25567;SDS011;13455;51.480;7.594;2023-06-04T06:48:02;4.20;;;1.95;;
25567;SDS011;13455;51.480;7.594;2023-06-04T06:50:28;3.67;;;2.10;;
25567;SDS011;13455;51.480;7.594;2023-06-04T06:52:54;4.00;;;2.20;;
25567;SDS011;13455;51.480;7.594;2023-06-04T06:55:20;3.47;;;2.00;;
25567;SDS011;13455;51.480;7.594;2023-06-04T06:57:46;3.65;;;2.08;;
25567;SDS011;13455;51.480;7.594;2023-06-04T07:00:12;3.20;;;1.92;;
25567;SDS011;13455;51.480;7.594;2023-06-04T07:02:38;3.45;;;2.10;;
25567;SDS011;13455;51.480;7.594;2023-06-04T07:05:03;3.70;;;2.30;;
25567;SDS011;13455;51.480;7.594;2023-06-04T07:07:29;5.38;;;2.30;;
25567;SDS011;13455;51.480;7.594;2023-06-04T07:09:56;3.25;;;2.00;;
25567;SDS011;13455;51.480;7.594;2023-06-04T07:12:22;2.72;;;1.90;;
25567;SDS011;13455;51.480;7.594;2023-06-04T07:14:48;3.83;;;2.00;;
25567;SDS011;13455;51.480;7.594;2023-06-04T07:17:13;3.47;;;1.73;;
25567;SDS011;13455;51.480;7.594;2023-06-04T07:19:39;2.93;;;1.77;;
25567;SDS011;13455;51.480;7.594;2023-06-04T07:22:05;4.40;;;1.85;;
25567;SDS011;13455;51.480;7.594;2023-06-04T07:24:31;3.38;;;1.70;;
25567;SDS011;13455;51.480;7.594;2023-06-04T07:26:57;2.47;;;1.60;;
25567;SDS011;13455;51.480;7.594;2023-06-04T07:29:23;3.00;;;1.50;;
25567;SDS011;13455;51.480;7.594;2023-06-04T07:31:49;3.58;;;1.73;;
25567;SDS011;13455;51.480;7.594;2023-06-04T07:34:15;3.10;;;1.70;;
25567;SDS011;13455;51.480;7.594;2023-06-04T07:36:52;2.63;;;1.70;;
25567;SDS011;13455;51.480;7.594;2023-06-04T07:39:18;3.92;;;1.67;;
25567;SDS011;13455;51.480;7.594;2023-06-04T07:41:44;4.75;;;1.85;;
25567;SDS011;13455;51.480;7.594;2023-06-04T07:44:10;4.93;;;1.80;;
25567;SDS011;13455;51.480;7.594;2023-06-04T07:46:36;4.90;;;1.90;;
25567;SDS011;13455;51.480;7.594;2023-06-04T07:49:02;3.15;;;1.80;;
25567;SDS011;13455;51.480;7.594;2023-06-04T07:51:28;4.57;;;1.70;;
25567;SDS011;13455;51.480;7.594;2023-06-04T07:53:53;4.37;;;1.87;;
25567;SDS011;13455;51.480;7.594;2023-06-04T07:56:19;3.10;;;1.90;;
25567;SDS011;13455;51.480;7.594;2023-06-04T07:58:44;4.50;;;1.80;;
25567;SDS011;13455;51.480;7.594;2023-06-04T08:01:11;3.78;;;1.80;;
25567;SDS011;13455;51.480;7.594;2023-06-04T08:03:36;3.63;;;1.87;;
25567;SDS011;13455;51.480;7.594;2023-06-04T08:06:02;3.42;;;2.00;;
25567;SDS011;13455;51.480;7.594;2023-06-04T08:08:28;3.63;;;1.83;;
25567;SDS011;13455;51.480;7.594;2023-06-04T08:10:53;3.27;;;2.10;;
25567;SDS011;13455;51.480;7.594;2023-06-04T08:13:19;3.60;;;1.95;;
25567;SDS011;13455;51.480;7.594;2023-06-04T08:15:45;4.40;;;1.92;;
25567;SDS011;13455;51.480;7.594;2023-06-04T08:18:11;5.18;;;2.10;;
25567;SDS011;13455;51.480;7.594;2023-06-04T08:20:37;4.72;;;2.20;;
25567;SDS011;13455;51.480;7.594;2023-06-04T08:23:03;8.23;;;2.15;;
25567;SDS011;13455;51.480;7.594;2023-06-04T08:25:28;4.57;;;2.30;;
25567;SDS011;13455;51.480;7.594;2023-06-04T08:27:55;3.23;;;2.00;;
25567;SDS011;13455;51.480;7.594;2023-06-04T08:30:20;4.47;;;2.10;;
25567;SDS011;13455;51.480;7.594;2023-06-04T08:32:46;3.60;;;2.20;;
25567;SDS011;13455;51.480;7.594;2023-06-04T08:35:13;4.30;;;2.10;;
25567;SDS011;13455;51.480;7.594;2023-06-04T08:37:39;6.63;;;2.20;;
25567;SDS011;13455;51.480;7.594;2023-06-04T08:40:06;4.13;;;2.30;;
25567;SDS011;13455;51.480;7.594;2023-06-04T08:42:38;4.60;;;2.45;;
25567;SDS011;13455;51.480;7.594;2023-06-04T08:45:08;5.07;;;2.37;;
25567;SDS011;13455;51.480;7.594;2023-06-04T08:47:36;7.03;;;2.33;;
25567;SDS011;13455;51.480;7.594;2023-06-04T08:50:03;3.90;;;2.28;;
25567;SDS011;13455;51.480;7.594;2023-06-04T08:52:34;4.18;;;2.20;;
25567;SDS011;13455;51.480;7.594;2023-06-04T08:55:00;3.47;;;2.20;;
25567;SDS011;13455;51.480;7.594;2023-06-04T08:57:27;5.97;;;2.30;;
25567;SDS011;13455;51.480;7.594;2023-06-04T08:59:53;5.55;;;2.40;;
25567;SDS011;13455;51.480;7.594;2023-06-04T09:02:19;4.22;;;2.35;;
25567;SDS011;13455;51.480;7.594;2023-06-04T09:04:45;4.53;;;2.20;;
25567;SDS011;13455;51.480;7.594;2023-06-04T09:07:11;4.10;;;2.30;;
25567;SDS011;13455;51.480;7.594;2023-06-04T09:09:38;5.40;;;2.75;;
25567;SDS011;13455;51.480;7.594;2023-06-04T09:12:17;4.63;;;2.60;;
25567;SDS011;13455;51.480;7.594;2023-06-04T09:14:44;4.70;;;2.58;;
25567;SDS011;13455;51.480;7.594;2023-06-04T09:17:10;5.45;;;2.50;;
25567;SDS011;13455;51.480;7.594;2023-06-04T09:19:36;5.35;;;2.60;;
25567;SDS011;13455;51.480;7.594;2023-06-04T09:22:02;4.97;;;2.40;;
25567;SDS011;13455;51.480;7.594;2023-06-04T09:24:38;5.30;;;2.80;;
25567;SDS011;13455;51.480;7.594;2023-06-04T09:29:38;6.07;;;2.53;;
25567;SDS011;13455;51.480;7.594;2023-06-04T09:32:04;3.75;;;2.60;;
25567;SDS011;13455;51.480;7.594;2023-06-04T09:34:30;5.63;;;2.90;;
25567;SDS011;13455;51.480;7.594;2023-06-04T09:36:56;4.00;;;2.50;;
25567;SDS011;13455;51.480;7.594;2023-06-04T09:39:21;3.87;;;2.63;;
25567;SDS011;13455;51.480;7.594;2023-06-04T09:42:00;4.85;;;2.50;;
25567;SDS011;13455;51.480;7.594;2023-06-04T09:44:28;4.85;;;2.70;;
25567;SDS011;13455;51.480;7.594;2023-06-04T09:46:55;4.28;;;2.65;;
25567;SDS011;13455;51.480;7.594;2023-06-04T09:49:21;4.05;;;2.65;;
25567;SDS011;13455;51.480;7.594;2023-06-04T09:51:47;4.75;;;2.70;;
25567;SDS011;13455;51.480;7.594;2023-06-04T09:54:13;6.00;;;2.63;;
25567;SDS011;13455;51.480;7.594;2023-06-04T09:56:42;4.43;;;2.50;;
25567;SDS011;13455;51.480;7.594;2023-06-04T09:59:08;3.97;;;2.40;;
25567;SDS011;13455;51.480;7.594;2023-06-04T10:01:36;6.15;;;2.60;;
25567;SDS011;13455;51.480;7.594;2023-06-04T10:04:04;4.78;;;2.30;;
25567;SDS011;13455;51.480;7.594;2023-06-04T10:06:33;6.07;;;2.50;;
25567;SDS011;13455;51.480;7.594;2023-06-04T10:08:59;4.75;;;2.30;;
25567;SDS011;13455;51.480;7.594;2023-06-04T10:11:35;5.82;;;2.10;;
25567;SDS011;13455;51.480;7.594;2023-06-04T10:14:03;6.20;;;2.20;;
25567;SDS011;13455;51.480;7.594;2023-06-04T10:16:37;4.03;;;2.30;;
25567;SDS011;13455;51.480;7.594;2023-06-04T10:19:05;4.55;;;2.33;;
25567;SDS011;13455;51.480;7.594;2023-06-04T10:21:32;5.03;;;2.55;;
25567;SDS011;13455;51.480;7.594;2023-06-04T10:24:02;4.77;;;2.43;;
25567;SDS011;13455;51.480;7.594;2023-06-04T10:26:28;4.45;;;2.38;;
25567;SDS011;13455;51.480;7.594;2023-06-04T10:28:57;3.23;;;2.00;;
25567;SDS011;13455;51.480;7.594;2023-06-04T10:31:24;4.27;;;1.70;;
25567;SDS011;13455;51.480;7.594;2023-06-04T10:33:53;3.88;;;1.70;;
25567;SDS011;13455;51.480;7.594;2023-06-04T10:36:20;4.30;;;1.85;;
25567;SDS011;13455;51.480;7.594;2023-06-04T10:38:47;5.23;;;1.70;;
25567;SDS011;13455;51.480;7.594;2023-06-04T10:41:17;4.47;;;1.98;;
25567;SDS011;13455;51.480;7.594;2023-06-04T10:43:51;3.42;;;1.77;;
25567;SDS011;13455;51.480;7.594;2023-06-04T10:46:25;3.13;;;1.80;;
25567;SDS011;13455;51.480;7.594;2023-06-04T10:48:52;6.15;;;1.70;;
25567;SDS011;13455;51.480;7.594;2023-06-04T10:51:33;4.20;;;1.70;;
25567;SDS011;13455;51.480;7.594;2023-06-04T10:54:01;2.97;;;1.55;;
25567;SDS011;13455;51.480;7.594;2023-06-04T10:56:28;3.28;;;1.90;;
25567;SDS011;13455;51.480;7.594;2023-06-04T10:59:00;5.63;;;1.73;;
25567;SDS011;13455;51.480;7.594;2023-06-04T11:01:37;4.47;;;1.75;;
25567;SDS011;13455;51.480;7.594;2023-06-04T11:04:03;4.55;;;1.80;;
25567;SDS011;13455;51.480;7.594;2023-06-04T11:06:28;3.97;;;1.80;;
25567;SDS011;13455;51.480;7.594;2023-06-04T11:09:04;5.25;;;1.80;;
25567;SDS011;13455;51.480;7.594;2023-06-04T11:11:31;4.65;;;1.85;;
25567;SDS011;13455;51.480;7.594;2023-06-04T11:14:09;3.97;;;1.60;;
25567;SDS011;13455;51.480;7.594;2023-06-04T11:16:36;4.10;;;1.60;;
25567;SDS011;13455;51.480;7.594;2023-06-04T11:19:02;3.50;;;1.52;;
25567;SDS011;13455;51.480;7.594;2023-06-04T11:21:28;4.03;;;1.50;;
25567;SDS011;13455;51.480;7.594;2023-06-04T11:23:54;3.08;;;1.65;;
25567;SDS011;13455;51.480;7.594;2023-06-04T11:26:22;4.45;;;1.60;;
25567;SDS011;13455;51.480;7.594;2023-06-04T11:29:07;6.70;;;1.70;;
25567;SDS011;13455;51.480;7.594;2023-06-04T11:34:08;3.80;;;1.70;;
25567;SDS011;13455;51.480;7.594;2023-06-04T11:36:36;3.70;;;1.57;;
25567;SDS011;13455;51.480;7.594;2023-06-04T11:39:03;4.20;;;1.42;;
25567;SDS011;13455;51.480;7.594;2023-06-04T11:41:33;2.65;;;1.48;;
25567;SDS011;13455;51.480;7.594;2023-06-04T11:44:04;4.57;;;1.52;;
25567;SDS011;13455;51.480;7.594;2023-06-04T11:46:33;4.05;;;1.50;;
25567;SDS011;13455;51.480;7.594;2023-06-04T11:49:00;3.78;;;1.60;;
25567;SDS011;13455;51.480;7.594;2023-06-04T11:51:27;4.80;;;1.60;;
25567;SDS011;13455;51.480;7.594;2023-06-04T11:53:54;4.30;;;1.40;;
25567;SDS011;13455;51.480;7.594;2023-06-04T11:56:20;4.25;;;1.50;;
25567;SDS011;13455;51.480;7.594;2023-06-04T11:58:46;3.95;;;1.40;;
25567;SDS011;13455;51.480;7.594;2023-06-04T12:01:12;4.50;;;1.50;;
25567;SDS011;13455;51.480;7.594;2023-06-04T12:03:39;4.43;;;1.48;;
25567;SDS011;13455;51.480;7.594;2023-06-04T12:06:09;5.50;;;1.50;;
25567;SDS011;13455;51.480;7.594;2023-06-04T12:08:44;3.30;;;1.40;;
25567;SDS011;13455;51.480;7.594;2023-06-04T12:11:10;3.27;;;1.20;;
25567;SDS011;13455;51.480;7.594;2023-06-04T12:13:38;3.30;;;1.48;;
25567;SDS011;13455;51.480;7.594;2023-06-04T12:16:04;4.13;;;1.20;;
25567;SDS011;13455;51.480;7.594;2023-06-04T12:18:31;2.90;;;1.40;;
25567;SDS011;13455;51.480;7.594;2023-06-04T12:20:56;2.88;;;1.30;;
25567;SDS011;13455;51.480;7.594;2023-06-04T12:23:22;2.58;;;1.20;;
25567;SDS011;13455;51.480;7.594;2023-06-04T12:25:51;3.20;;;1.20;;
25567;SDS011;13455;51.480;7.594;2023-06-04T12:28:17;2.97;;;1.30;;
25567;SDS011;13455;51.480;7.594;2023-06-04T12:30:43;4.97;;;1.40;;
25567;SDS011;13455;51.480;7.594;2023-06-04T12:33:10;3.88;;;1.50;;
25567;SDS011;13455;51.480;7.594;2023-06-04T12:35:37;3.60;;;1.30;;
25567;SDS011;13455;51.480;7.594;2023-06-04T12:38:03;2.77;;;1.20;;
25567;SDS011;13455;51.480;7.594;2023-06-04T12:40:30;3.20;;;1.30;;
25567;SDS011;13455;51.480;7.594;2023-06-04T12:42:55;3.07;;;1.20;;
25567;SDS011;13455;51.480;7.594;2023-06-04T12:45:21;3.95;;;1.20;;
25567;SDS011;13455;51.480;7.594;2023-06-04T12:47:47;5.30;;;1.35;;
25567;SDS011;13455;51.480;7.594;2023-06-04T12:50:13;3.47;;;1.20;;
25567;SDS011;13455;51.480;7.594;2023-06-04T12:52:39;2.97;;;1.33;;
25567;SDS011;13455;51.480;7.594;2023-06-04T12:55:06;3.95;;;1.40;;
25567;SDS011;13455;51.480;7.594;2023-06-04T12:57:32;5.43;;;1.20;;
25567;SDS011;13455;51.480;7.594;2023-06-04T12:59:57;2.70;;;1.20;;
25567;SDS011;13455;51.480;7.594;2023-06-04T13:02:23;2.43;;;1.10;;
25567;SDS011;13455;51.480;7.594;2023-06-04T13:04:49;3.92;;;1.25;;
25567;SDS011;13455;51.480;7.594;2023-06-04T13:07:19;3.75;;;1.27;;
25567;SDS011;13455;51.480;7.594;2023-06-04T13:09:45;2.35;;;1.20;;
25567;SDS011;13455;51.480;7.594;2023-06-04T13:12:10;3.83;;;1.20;;
25567;SDS011;13455;51.480;7.594;2023-06-04T13:14:36;2.87;;;1.20;;
25567;SDS011;13455;51.480;7.594;2023-06-04T13:17:02;4.45;;;1.25;;
25567;SDS011;13455;51.480;7.594;2023-06-04T13:19:27;2.85;;;1.20;;
25567;SDS011;13455;51.480;7.594;2023-06-04T13:21:53;3.00;;;1.20;;
25567;SDS011;13455;51.480;7.594;2023-06-04T13:24:18;3.90;;;1.20;;
25567;SDS011;13455;51.480;7.594;2023-06-04T13:26:44;5.00;;;1.20;;
25567;SDS011;13455;51.480;7.594;2023-06-04T13:29:10;2.22;;;1.30;;
25567;SDS011;13455;51.480;7.594;2023-06-04T13:31:35;2.33;;;1.17;;
25567;SDS011;13455;51.480;7.594;2023-06-04T13:34:03;3.40;;;1.30;;
25567;SDS011;13455;51.480;7.594;2023-06-04T13:36:29;5.63;;;1.27;;
25567;SDS011;13455;51.480;7.594;2023-06-04T13:38:55;2.93;;;1.30;;
25567;SDS011;13455;51.480;7.594;2023-06-04T13:41:20;4.47;;;1.38;;
25567;SDS011;13455;51.480;7.594;2023-06-04T13:43:47;3.50;;;1.20;;
25567;SDS011;13455;51.480;7.594;2023-06-04T13:46:13;3.17;;;1.20;;
25567;SDS011;13455;51.480;7.594;2023-06-04T13:48:38;2.40;;;1.20;;
25567;SDS011;13455;51.480;7.594;2023-06-04T13:51:04;2.60;;;1.30;;
25567;SDS011;13455;51.480;7.594;2023-06-04T13:53:30;3.90;;;1.20;;
25567;SDS011;13455;51.480;7.594;2023-06-04T13:55:55;3.03;;;1.20;;
25567;SDS011;13455;51.480;7.594;2023-06-04T13:58:24;1.75;;;1.10;;
25567;SDS011;13455;51.480;7.594;2023-06-04T14:00:51;2.60;;;1.20;;
25567;SDS011;13455;51.480;7.594;2023-06-04T14:03:17;3.10;;;1.20;;
25567;SDS011;13455;51.480;7.594;2023-06-04T14:05:42;2.50;;;1.20;;
25567;SDS011;13455;51.480;7.594;2023-06-04T14:08:08;2.67;;;1.30;;
25567;SDS011;13455;51.480;7.594;2023-06-04T14:10:34;2.58;;;1.20;;
25567;SDS011;13455;51.480;7.594;2023-06-04T14:13:01;5.22;;;1.30;;
25567;SDS011;13455;51.480;7.594;2023-06-04T14:15:26;2.55;;;1.30;;
25567;SDS011;13455;51.480;7.594;2023-06-04T14:17:52;3.20;;;1.27;;
25567;SDS011;13455;51.480;7.594;2023-06-04T14:20:17;4.93;;;1.50;;
25567;SDS011;13455;51.480;7.594;2023-06-04T14:22:43;4.20;;;1.30;;
25567;SDS011;13455;51.480;7.594;2023-06-04T14:25:09;3.22;;;1.15;;
25567;SDS011;13455;51.480;7.594;2023-06-04T14:27:35;3.67;;;1.40;;
25567;SDS011;13455;51.480;7.594;2023-06-04T14:30:01;2.97;;;1.48;;
25567;SDS011;13455;51.480;7.594;2023-06-04T14:32:28;5.28;;;1.50;;
25567;SDS011;13455;51.480;7.594;2023-06-04T14:34:54;4.00;;;1.30;;
25567;SDS011;13455;51.480;7.594;2023-06-04T14:37:20;4.35;;;1.40;;
25567;SDS011;13455;51.480;7.594;2023-06-04T14:39:46;3.72;;;1.40;;
25567;SDS011;13455;51.480;7.594;2023-06-04T14:42:12;2.28;;;1.33;;
25567;SDS011;13455;51.480;7.594;2023-06-04T14:44:38;3.13;;;1.45;;
25567;SDS011;13455;51.480;7.594;2023-06-04T14:47:04;2.83;;;1.50;;
25567;SDS011;13455;51.480;7.594;2023-06-04T14:49:30;2.80;;;1.33;;
25567;SDS011;13455;51.480;7.594;2023-06-04T14:51:56;4.40;;;1.50;;
25567;SDS011;13455;51.480;7.594;2023-06-04T14:54:22;2.93;;;1.23;;
25567;SDS011;13455;51.480;7.594;2023-06-04T14:56:47;4.00;;;1.20;;
25567;SDS011;13455;51.480;7.594;2023-06-04T14:59:13;2.95;;;1.30;;